Time;durP1;ratioP1;P1;durP2;ratioP2;P2;SDS_P1;SDS_P2;PMS_P1;PMS_P2;Temp;Humidity;BMP_temperature;BMP_pressure;BME280_temperature;BME280_humidity;BME280_pressure;Samples;Min_cycle;Max_cycle;Signal;HPM_P1;HPM_P2
2022/06/21 00:00:08;;;;;;;8.10;4.00;;;;;;;;;;5070964;28;20044;-73
2022/06/21 00:02:35;;;;;;;7.30;3.15;;;;;;;;;;5054799;28;20401;-73
2022/06/21 00:05:01;;;;;;;7.25;4.00;;;;;;;;;;5104757;28;20123;-73
2022/06/21 00:07:28;;;;;;;5.47;3.55;;;;;;;;;;5054344;28;20036;-73
2022/06/21 00:09:54;;;;;;;6.78;4.13;;;;;;;;;;5072435;28;20072;-73
2022/06/21 00:12:21;;;;;;;8.82;3.92;;;;;;;;;;5070520;28;20040;-73
2022/06/21 00:14:48;;;;;;;13.70;5.50;;;;;;;;;;5071515;28;20093;-73
2022/06/21 00:17:16;;;;;;;6.00;4.68;;;;;;;;;;5070824;28;20086;-74
2022/06/21 00:19:43;;;;;;;4.55;3.25;;;;;;;;;;5071359;28;20535;-73
2022/06/21 00:22:18;;;;;;;4.80;3.10;;;;;;;;;;5070261;28;20132;-73
2022/06/21 00:24:45;;;;;;;7.88;4.78;;;;;;;;;;5070856;28;20528;-73
2022/06/21 00:27:21;;;;;;;10.15;4.80;;;;;;;;;;5070474;28;20083;-73
2022/06/21 00:29:47;;;;;;;11.30;5.63;;;;;;;;;;5053871;28;20040;-73
2022/06/21 00:32:14;;;;;;;8.93;4.97;;;;;;;;;;5070388;28;20078;-73
2022/06/21 00:34:41;;;;;;;6.22;3.95;;;;;;;;;;5071060;28;20570;-73
2022/06/21 00:37:22;;;;;;;7.45;4.82;;;;;;;;;;5070640;28;20123;-73
2022/06/21 00:39:48;;;;;;;7.28;4.25;;;;;;;;;;5070696;28;20044;-73
2022/06/21 00:42:22;;;;;;;10.10;4.50;;;;;;;;;;5070312;28;20048;-74
2022/06/21 00:45:08;;;;;;;7.15;3.92;;;;;;;;;;5072157;28;20072;-74
2022/06/21 00:47:51;;;;;;;9.23;4.50;;;;;;;;;;5063890;28;20083;-73
2022/06/21 00:50:20;;;;;;;11.60;5.05;;;;;;;;;;5054362;28;20458;-73
2022/06/21 00:53:00;;;;;;;11.75;4.78;;;;;;;;;;5072245;28;20036;-73
2022/06/21 00:55:46;;;;;;;8.32;4.43;;;;;;;;;;5070707;28;20485;-73
2022/06/21 00:58:12;;;;;;;;;;;;;;;;;;5070428;28;20046;-73
2022/06/21 01:00:44;;;;;;;9.90;4.60;;;;;;;;;;5070849;28;20388;-73
2022/06/21 01:03:18;;;;;;;9.40;4.82;;;;;;;;;;5053770;28;20048;-74
2022/06/21 01:05:45;;;;;;;7.13;4.20;;;;;;;;;;5072329;28;20123;-73
2022/06/21 01:08:13;;;;;;;7.05;4.43;;;;;;;;;;5070109;28;20598;-72
2022/06/21 01:10:40;;;;;;;6.22;4.35;;;;;;;;;;5070634;28;20437;-74
2022/06/21 01:13:18;;;;;;;7.60;4.13;;;;;;;;;;5070394;28;20049;-73
2022/06/21 01:15:46;;;;;;;11.25;4.35;;;;;;;;;;5053660;28;20028;-74
2022/06/21 01:18:14;;;;;;;7.45;3.75;;;;;;;;;;5069959;28;20132;-73
2022/06/21 01:20:43;;;;;;;6.93;4.05;;;;;;;;;;5070133;28;20037;-73
2022/06/21 01:23:28;;;;;;;8.30;5.00;;;;;;;;;;5070010;28;20049;-73
2022/06/21 01:26:00;;;;;;;11.90;5.30;;;;;;;;;;5053561;28;20086;-73
2022/06/21 01:28:26;;;;;;;6.28;4.22;;;;;;;;;;5069807;28;20079;-73
2022/06/21 01:30:54;;;;;;;8.70;4.43;;;;;;;;;;5071127;28;20033;-73
2022/06/21 01:33:29;;;;;;;8.30;5.00;;;;;;;;;;5069747;28;20029;-73
2022/06/21 01:35:56;;;;;;;6.88;4.20;;;;;;;;;;5072178;28;20033;-73
2022/06/21 01:38:28;;;;;;;9.98;4.85;;;;;;;;;;5073470;28;20086;-73
2022/06/21 01:40:57;;;;;;;6.95;3.95;;;;;;;;;;5075512;28;20037;-73
2022/06/21 01:43:25;;;;;;;8.27;5.05;;;;;;;;;;5056917;28;20035;-73
2022/06/21 01:45:53;;;;;;;8.52;4.95;;;;;;;;;;5074032;28;20481;-73
2022/06/21 01:48:22;;;;;;;7.80;4.63;;;;;;;;;;5070456;28;21778;-73
2022/06/21 01:50:50;;;;;;;7.93;4.20;;;;;;;;;;5063162;28;20040;-73
2022/06/21 01:53:18;;;;;;;9.02;5.03;;;;;;;;;;5073290;28;20045;-73
2022/06/21 01:55:46;;;;;;;8.43;4.60;;;;;;;;;;5074170;28;20605;-73
2022/06/21 01:58:14;;;;;;;6.28;2.50;;;;;;;;;;5073490;28;20044;-73
2022/06/21 02:00:43;;;;;;;7.72;4.38;;;;;;;;;;5069342;28;20413;-73
2022/06/21 02:03:21;;;;;;;7.80;4.10;;;;;;;;;;5060089;28;20059;-73
2022/06/21 02:05:52;;;;;;;7.97;4.60;;;;;;;;;;5073072;28;20054;-73
2022/06/21 02:08:21;;;;;;;7.38;4.90;;;;;;;;;;5068528;28;20045;-73
2022/06/21 02:10:48;;;;;;;7.65;4.50;;;;;;;;;;5064157;28;20047;-73
2022/06/21 02:13:16;;;;;;;8.23;4.60;;;;;;;;;;5072904;28;20045;-73
2022/06/21 02:15:51;;;;;;;7.47;4.38;;;;;;;;;;5056654;28;20067;-73
2022/06/21 02:18:18;;;;;;;6.65;4.25;;;;;;;;;;5072836;28;20106;-73
2022/06/21 02:21:00;;;;;;;9.23;5.30;;;;;;;;;;5073169;28;20048;-73
2022/06/21 02:23:26;;;;;;;8.05;4.78;;;;;;;;;;5073827;28;20040;-73
2022/06/21 02:25:54;;;;;;;7.43;4.65;;;;;;;;;;5073209;28;20048;-73
2022/06/21 02:28:21;;;;;;;10.02;4.68;;;;;;;;;;5074151;28;20045;-73
2022/06/21 02:30:48;;;;;;;7.38;4.75;;;;;;;;;;5071825;28;20127;-73
2022/06/21 02:33:18;;;;;;;9.45;5.20;;;;;;;;;;5073274;28;20124;-73
2022/06/21 02:35:47;;;;;;;6.63;4.78;;;;;;;;;;5074349;28;20072;-73
2022/06/21 02:38:16;;;;;;;5.97;4.65;;;;;;;;;;5072997;28;20439;-73
2022/06/21 02:40:49;;;;;;;10.35;4.95;;;;;;;;;;5073330;28;20507;-73
2022/06/21 02:43:17;;;;;;;9.63;5.43;;;;;;;;;;5056224;28;20044;-73
2022/06/21 02:45:43;;;;;;;10.13;4.97;;;;;;;;;;5073102;28;20125;-73
2022/06/21 02:48:13;;;;;;;11.85;5.30;;;;;;;;;;5072072;28;20048;-73
2022/06/21 02:50:47;;;;;;;7.88;4.60;;;;;;;;;;5073837;28;20044;-73
2022/06/21 02:53:18;;;;;;;9.45;4.97;;;;;;;;;;5072600;28;20124;-73
2022/06/21 02:55:48;;;;;;;10.40;5.35;;;;;;;;;;5074271;28;20107;-73
2022/06/21 02:58:29;;;;;;;11.40;5.68;;;;;;;;;;5072879;28;20540;-73
2022/06/21 03:00:56;;;;;;;15.60;5.70;;;;;;;;;;5072767;28;20048;-73
2022/06/21 03:03:28;;;;;;;10.60;5.28;;;;;;;;;;5055689;28;20048;-73
2022/06/21 03:05:56;;;;;;;8.30;5.15;;;;;;;;;;5073907;28;20039;-72
2022/06/21 03:08:22;;;;;;;27.50;4.65;;;;;;;;;;5071891;28;20094;-73
2022/06/21 03:10:49;;;;;;;7.55;4.47;;;;;;;;;;5072300;28;20050;-73
2022/06/21 03:13:35;;;;;;;9.73;5.28;;;;;;;;;;5072351;28;20041;-73
2022/06/21 03:16:07;;;;;;;12.75;5.18;;;;;;;;;;5046236;28;20044;-73
2022/06/21 03:18:37;;;;;;;10.75;5.63;;;;;;;;;;5072992;28;20067;-73
2022/06/21 03:21:04;;;;;;;10.50;5.40;;;;;;;;;;5073761;28;20520;-73
2022/06/21 03:23:30;;;;;;;6.85;4.80;;;;;;;;;;5071609;28;20093;-73
2022/06/21 03:25:59;;;;;;;7.93;5.45;;;;;;;;;;5071516;28;20048;-73
2022/06/21 03:28:30;;;;;;;8.32;4.70;;;;;;;;;;5072558;28;20496;-73
2022/06/21 03:30:59;;;;;;;6.75;4.30;;;;;;;;;;5071692;28;20346;-73
2022/06/21 03:33:25;;;;;;;7.00;4.78;;;;;;;;;;5055078;28;20047;-72
2022/06/21 03:35:51;;;;;;;10.88;5.05;;;;;;;;;;5054907;28;20040;-73
2022/06/21 03:38:17;;;;;;;8.77;5.43;;;;;;;;;;5073309;28;20051;-73
2022/06/21 03:43:47;;;;;;;7.93;5.30;;;;;;;;;;5057181;28;20055;-73
2022/06/21 03:46:17;;;;;;;10.85;5.90;;;;;;;;;;5071749;28;20046;-73
2022/06/21 03:49:03;;;;;;;10.95;5.65;;;;;;;;;;5071052;28;20053;-73
2022/06/21 03:51:31;;;;;;;9.10;5.78;;;;;;;;;;5071715;28;20041;-73
2022/06/21 03:54:01;;;;;;;9.65;6.00;;;;;;;;;;5073327;28;20072;-73
2022/06/21 03:56:31;;;;;;;8.48;5.68;;;;;;;;;;5071508;28;20041;-73
2022/06/21 03:59:14;;;;;;;9.32;5.32;;;;;;;;;;5071203;28;20052;-73
2022/06/21 04:01:52;;;;;;;8.88;5.00;;;;;;;;;;5063379;28;20540;-73
2022/06/21 04:04:34;;;;;;;7.45;5.15;;;;;;;;;;5055109;28;20127;-73
2022/06/21 04:07:12;;;;;;;10.38;4.90;;;;;;;;;;5050926;28;20048;-73
2022/06/21 04:09:38;;;;;;;7.70;4.68;;;;;;;;;;5051090;28;20423;-73
2022/06/21 04:12:04;;;;;;;7.05;4.35;;;;;;;;;;5050847;28;20043;-73
2022/06/21 04:14:49;;;;;;;5.50;4.18;;;;;;;;;;5054750;28;20048;-73
2022/06/21 04:17:21;;;;;;;5.88;4.28;;;;;;;;;;5071195;28;20036;-73
2022/06/21 04:19:53;;;;;;;5.15;3.63;;;;;;;;;;5072413;28;20097;-73
2022/06/21 04:22:32;;;;;;;6.22;4.47;;;;;;;;;;5054491;28;20051;-73
2022/06/21 04:25:03;;;;;;;8.18;4.65;;;;;;;;;;5070807;28;20045;-73
2022/06/21 04:27:29;;;;;;;6.32;4.72;;;;;;;;;;5070357;28;20079;-73
2022/06/21 04:30:02;;;;;;;6.38;4.60;;;;;;;;;;5104684;28;20036;-73
2022/06/21 04:32:30;;;;;;;6.68;5.00;;;;;;;;;;5072272;28;20037;-73
2022/06/21 04:34:58;;;;;;;6.97;4.65;;;;;;;;;;5070927;28;20043;-73
2022/06/21 04:37:30;;;;;;;9.40;5.20;;;;;;;;;;5054344;28;20171;-73
2022/06/21 04:39:58;;;;;;;8.73;5.43;;;;;;;;;;5072543;28;20079;-73
2022/06/21 04:42:30;;;;;;;8.27;5.13;;;;;;;;;;5070788;28;20045;-73
2022/06/21 04:45:02;;;;;;;9.40;5.60;;;;;;;;;;5071122;28;20079;-73
2022/06/21 04:47:34;;;;;;;6.28;4.53;;;;;;;;;;5071212;28;20052;-73
2022/06/21 04:50:02;;;;;;;9.32;5.53;;;;;;;;;;5043913;28;20062;-74
2022/06/21 04:52:39;;;;;;;9.43;4.70;;;;;;;;;;5070980;28;20120;-73
2022/06/21 04:55:06;;;;;;;8.27;5.00;;;;;;;;;;5071023;28;20452;-73
2022/06/21 04:57:33;;;;;;;8.73;5.25;;;;;;;;;;5070471;28;20047;-73
2022/06/21 04:59:59;;;;;;;8.30;5.53;;;;;;;;;;5071060;28;20036;-73
2022/06/21 05:02:28;;;;;;;9.00;4.57;;;;;;;;;;5070819;28;20116;-73
2022/06/21 05:05:04;;;;;;;11.38;5.30;;;;;;;;;;5070530;28;20093;-73
2022/06/21 05:07:32;;;;;;;7.15;4.05;;;;;;;;;;5070525;28;20052;-73
2022/06/21 05:09:59;;;;;;;5.60;3.40;;;;;;;;;;5054659;28;20035;-74
2022/06/21 05:12:31;;;;;;;5.90;3.55;;;;;;;;;;5074756;28;20534;-74
2022/06/21 05:15:10;;;;;;;5.90;3.63;;;;;;;;;;5074116;28;20044;-74
2022/06/21 05:17:38;;;;;;;4.63;3.13;;;;;;;;;;5074335;28;20551;-74
2022/06/21 05:20:07;;;;;;;5.00;3.30;;;;;;;;;;5074477;28;20044;-74
2022/06/21 05:22:36;;;;;;;4.93;3.40;;;;;;;;;;5074329;28;20115;-74
2022/06/21 05:25:04;;;;;;;6.35;3.30;;;;;;;;;;5074229;28;20041;-74
2022/06/21 05:27:39;;;;;;;7.47;3.20;;;;;;;;;;5074010;28;20515;-74
2022/06/21 05:30:05;;;;;;;6.05;3.38;;;;;;;;;;5075346;28;20116;-74
2022/06/21 05:32:33;;;;;;;6.43;3.00;;;;;;;;;;5057407;28;20413;-74
2022/06/21 05:35:07;;;;;;;7.50;3.30;;;;;;;;;;5073760;28;20040;-74
2022/06/21 05:37:34;;;;;;;4.22;2.25;;;;;;;;;;5074140;28;20052;-74
2022/06/21 05:40:05;;;;;;;5.68;2.72;;;;;;;;;;5073921;28;20044;-74
2022/06/21 05:42:31;;;;;;;5.40;2.63;;;;;;;;;;5074166;28;20055;-74
2022/06/21 05:45:13;;;;;;;7.13;2.65;;;;;;;;;;5074158;28;20044;-75
2022/06/21 05:47:43;;;;;;;5.68;2.40;;;;;;;;;;5073924;28;20404;-74
2022/06/21 05:50:13;;;;;;;6.30;2.75;;;;;;;;;;5057515;28;20052;-75
2022/06/21 05:52:45;;;;;;;7.30;2.50;;;;;;;;;;5073858;28;20145;-75
2022/06/21 05:55:18;;;;;;;7.00;2.63;;;;;;;;;;5107527;28;20040;-75
2022/06/21 05:57:52;;;;;;;4.90;2.83;;;;;;;;;;5107335;28;20500;-73
2022/06/21 06:00:24;;;;;;;5.68;2.60;;;;;;;;;;5073985;28;20040;-72
2022/06/21 06:02:53;;;;;;;7.70;2.40;;;;;;;;;;5073211;28;20032;-72
2022/06/21 06:05:22;;;;;;;6.70;3.00;;;;;;;;;;5075098;28;20381;-73
2022/06/21 06:08:00;;;;;;;8.60;2.90;;;;;;;;;;5056313;28;20044;-72
2022/06/21 06:10:27;;;;;;;5.82;2.75;;;;;;;;;;5073506;28;20052;-75
2022/06/21 06:13:02;;;;;;;7.35;2.00;;;;;;;;;;5073069;28;20048;-75
2022/06/21 06:15:32;;;;;;;6.15;2.65;;;;;;;;;;5074271;28;20032;-75
2022/06/21 06:18:01;;;;;;;6.65;2.78;;;;;;;;;;5073887;28;20055;-74
2022/06/21 06:20:31;;;;;;;6.10;2.40;;;;;;;;;;5074671;28;20145;-74
2022/06/21 06:23:00;;;;;;;5.93;2.45;;;;;;;;;;5074973;28;20109;-74
2022/06/21 06:25:29;;;;;;;9.27;1.85;;;;;;;;;;5073042;28;20036;-74
2022/06/21 06:28:05;;;;;;;6.93;2.10;;;;;;;;;;5055947;28;20075;-74
2022/06/21 06:30:41;;;;;;;4.35;1.50;;;;;;;;;;5072673;28;20091;-74
2022/06/21 06:33:11;;;;;;;5.97;1.50;;;;;;;;;;5073174;28;20040;-74
2022/06/21 06:35:37;;;;;;;6.35;2.22;;;;;;;;;;5072917;28;20044;-73
2022/06/21 06:38:03;;;;;;;7.50;2.03;;;;;;;;;;5072735;28;20130;-73
2022/06/21 06:40:32;;;;;;;6.43;1.90;;;;;;;;;;5073188;28;20043;-73
2022/06/21 06:43:01;;;;;;;6.47;1.80;;;;;;;;;;5073662;28;20047;-74
2022/06/21 06:45:30;;;;;;;4.57;1.73;;;;;;;;;;5072732;28;20046;-75
2022/06/21 06:48:03;;;;;;;6.18;1.90;;;;;;;;;;5071971;28;20041;-75
2022/06/21 06:50:59;;;;;;;5.90;1.70;;;;;;;;;;5056025;28;20099;-75
2022/06/21 06:53:29;;;;;;;5.07;2.00;;;;;;;;;;5037829;28;20060;-75
2022/06/21 06:56:01;;;;;;;6.22;2.30;;;;;;;;;;5072345;28;20055;-73
2022/06/21 06:58:31;;;;;;;7.15;1.92;;;;;;;;;;5078495;28;20110;-73
2022/06/21 07:01:17;;;;;;;4.70;1.88;;;;;;;;;;5072017;28;20040;-73
2022/06/21 07:03:49;;;;;;;3.70;1.35;;;;;;;;;;5051965;28;20080;-73
2022/06/21 07:06:20;;;;;;;3.63;1.15;;;;;;;;;;5072680;28;20637;-73
2022/06/21 07:08:49;;;;;;;4.40;1.27;;;;;;;;;;5072040;28;20447;-74
2022/06/21 07:11:41;;;;;;;4.25;1.33;;;;;;;;;;5073032;28;20048;-73
2022/06/21 07:14:21;;;;;;;5.90;1.75;;;;;;;;;;5038596;28;20105;-73
2022/06/21 07:16:49;;;;;;;6.20;1.63;;;;;;;;;;5071928;28;20400;-74
2022/06/21 07:19:15;;;;;;;4.40;1.67;;;;;;;;;;5071868;28;20037;-73
2022/06/21 07:21:41;;;;;;;6.13;1.52;;;;;;;;;;5072172;28;20147;-73
2022/06/21 07:24:15;;;;;;;5.43;1.90;;;;;;;;;;5071546;28;20044;-73
2022/06/21 07:26:46;;;;;;;4.93;1.60;;;;;;;;;;5072148;28;20045;-73
2022/06/21 07:29:31;;;;;;;7.18;1.60;;;;;;;;;;5071676;28;20396;-73
2022/06/21 07:32:17;;;;;;;5.97;1.90;;;;;;;;;;5054746;28;20048;-73
2022/06/21 07:34:53;;;;;;;4.88;1.85;;;;;;;;;;5071083;28;20033;-73
2022/06/21 07:37:19;;;;;;;4.22;1.70;;;;;;;;;;5071598;28;20131;-73
2022/06/21 07:39:48;;;;;;;7.00;1.90;;;;;;;;;;5055014;28;20110;-73
2022/06/21 07:42:16;;;;;;;8.00;2.13;;;;;;;;;;5055169;28;20041;-73
2022/06/21 07:44:45;;;;;;;6.88;2.10;;;;;;;;;;5071600;28;20098;-73
2022/06/21 07:47:21;;;;;;;6.57;1.92;;;;;;;;;;5071187;28;20036;-73
2022/06/21 07:50:09;;;;;;;3.67;1.73;;;;;;;;;;5071459;28;20084;-73
2022/06/21 07:52:51;;;;;;;6.38;2.00;;;;;;;;;;5071815;28;20067;-73
2022/06/21 07:55:21;;;;;;;9.32;2.15;;;;;;;;;;5048469;28;20063;-73
2022/06/21 07:57:51;;;;;;;7.18;2.38;;;;;;;;;;5071908;28;20400;-72
2022/06/21 08:00:19;;;;;;;8.27;2.33;;;;;;;;;;5071094;28;20040;-74
2022/06/21 08:08:37;;;;;;;5.90;2.28;;;;;;;;;;5070830;28;20048;-73
2022/06/21 08:11:13;;;;;;;4.40;2.00;;;;;;;;;;5054287;28;20043;-73
2022/06/21 08:13:40;;;;;;;4.93;1.98;;;;;;;;;;5056573;28;20063;-73
2022/06/21 08:16:16;;;;;;;8.70;2.80;;;;;;;;;;5072443;28;20040;-72
2022/06/21 08:18:45;;;;;;;5.72;2.08;;;;;;;;;;5071337;28;20517;-73
2022/06/21 08:21:17;;;;;;;5.00;2.05;;;;;;;;;;5070624;28;20056;-73
2022/06/21 08:24:10;;;;;;;4.28;1.92;;;;;;;;;;5072625;28;20048;-73
2022/06/21 08:26:54;;;;;;;5.80;2.40;;;;;;;;;;5057157;28;20056;-72
2022/06/21 08:29:27;;;;;;;7.55;2.00;;;;;;;;;;5071113;28;20080;-73
2022/06/21 08:32:01;;;;;;;5.78;2.40;;;;;;;;;;5071526;28;20071;-73
2022/06/21 08:34:59;;;;;;;5.22;1.80;;;;;;;;;;5071467;28;20043;-72
2022/06/21 08:37:35;;;;;;;7.00;2.08;;;;;;;;;;5031837;28;20048;-72
2022/06/21 08:40:13;;;;;;;5.25;2.33;;;;;;;;;;5070124;28;20518;-73
2022/06/21 08:42:45;;;;;;;4.70;2.00;;;;;;;;;;5069851;28;20040;-73
2022/06/21 08:48:02;;;;;;;4.30;1.80;;;;;;;;;;5069280;28;20638;-73
2022/06/21 08:50:48;;;;;;;3.72;1.63;;;;;;;;;;5069930;28;20055;-72
2022/06/21 08:53:17;;;;;;;3.55;1.80;;;;;;;;;;5032489;28;20385;-73
2022/06/21 08:55:54;;;;;;;3.75;1.63;;;;;;;;;;5069978;28;20045;-72
2022/06/21 08:58:30;;;;;;;8.13;1.80;;;;;;;;;;5069281;28;20090;-73
2022/06/21 09:00:59;;;;;;;6.90;1.80;;;;;;;;;;5053149;28;20524;-73
2022/06/21 09:03:46;;;;;;;4.88;1.80;;;;;;;;;;5069965;28;20059;-73
2022/06/21 09:06:27;;;;;;;4.38;1.70;;;;;;;;;;5069514;28;20070;-73
2022/06/21 09:08:56;;;;;;;3.78;1.40;;;;;;;;;;5069835;28;20041;-73
2022/06/21 09:11:45;;;;;;;4.05;1.50;;;;;;;;;;5069520;28;20041;-73
2022/06/21 09:14:11;;;;;;;5.70;1.77;;;;;;;;;;5069091;28;20404;-73
2022/06/21 09:16:56;;;;;;;4.63;1.48;;;;;;;;;;5069570;28;20045;-73
2022/06/21 09:19:26;;;;;;;5.15;1.42;;;;;;;;;;5043782;28;20040;-73
2022/06/21 09:22:11;;;;;;;5.30;1.50;;;;;;;;;;5070180;28;20059;-73
2022/06/21 09:24:40;;;;;;;;;;;;;;;;;;5045721;28;20130;-73
2022/06/21 09:27:10;;;;;;;3.30;1.20;;;;;;;;;;5069324;28;19927;-73
2022/06/21 09:29:45;;;;;;;4.70;1.30;;;;;;;;;;5069704;28;20036;-72
2022/06/21 09:32:12;;;;;;;;;;;;;;;;;;5069790;28;20115;-73
2022/06/21 09:34:38;;;;;;;4.25;1.63;;;;;;;;;;5069436;28;19920;-73
2022/06/21 09:37:08;;;;;;;3.97;1.30;;;;;;;;;;5052901;28;20056;-73
2022/06/21 09:39:44;;;;;;;4.80;1.52;;;;;;;;;;5069651;28;20043;-73
2022/06/21 09:42:18;;;;;;;5.65;1.30;;;;;;;;;;5070427;28;20374;-72
2022/06/21 09:44:47;;;;;;;5.97;1.70;;;;;;;;;;5070358;28;20037;-73
2022/06/21 09:47:23;;;;;;;2.97;1.20;;;;;;;;;;5068929;28;20090;-73
2022/06/21 09:49:50;;;;;;;;;;;;;;;;;;5069864;28;20052;-73
2022/06/21 09:52:16;;;;;;;3.25;1.10;;;;;;;;;;5068871;28;19920;-73
2022/06/21 09:54:47;;;;;;;4.03;0.93;;;;;;;;;;5068897;28;20037;-73
2022/06/21 09:57:16;;;;;;;3.40;1.05;;;;;;;;;;5070028;28;20397;-74
2022/06/21 10:00:02;;;;;;;3.67;1.00;;;;;;;;;;5107047;28;20045;-74
2022/06/21 10:02:28;;;;;;;2.55;0.82;;;;;;;;;;5073144;28;20115;-74
2022/06/21 10:05:18;;;;;;;3.20;1.02;;;;;;;;;;5077623;28;20052;-74
2022/06/21 10:07:44;;;;;;;3.78;1.05;;;;;;;;;;5072706;28;20044;-74
2022/06/21 10:10:29;;;;;;;3.58;1.10;;;;;;;;;;5074196;28;20064;-74
2022/06/21 10:13:05;;;;;;;3.10;1.00;;;;;;;;;;5073086;28;20044;-74
2022/06/21 10:15:34;;;;;;;3.83;1.10;;;;;;;;;;5075107;28;20334;-74
2022/06/21 10:18:18;;;;;;;4.50;1.08;;;;;;;;;;5074203;28;20438;-73
2022/06/21 10:21:02;;;;;;;3.40;0.82;;;;;;;;;;5074508;28;20120;-73
2022/06/21 10:23:40;;;;;;;2.78;1.10;;;;;;;;;;5075296;28;20044;-74
2022/06/21 10:26:25;;;;;;;4.68;0.90;;;;;;;;;;5106420;28;20048;-73
2022/06/21 10:29:00;;;;;;;4.88;1.10;;;;;;;;;;5072722;28;20044;-74
2022/06/21 10:31:35;;;;;;;7.60;1.70;;;;;;;;;;5072534;28;20044;-74
2022/06/21 10:34:20;;;;;;;3.47;1.17;;;;;;;;;;5072293;28;20067;-74
2022/06/21 10:36:55;;;;;;;4.18;1.20;;;;;;;;;;5072283;28;20614;-74
2022/06/21 10:39:28;;;;;;;3.75;1.05;;;;;;;;;;5055045;28;20389;-74
2022/06/21 10:44:44;;;;;;;3.42;1.30;;;;;;;;;;5071577;28;20041;-74
2022/06/21 10:47:17;;;;;;;2.92;1.00;;;;;;;;;;5071449;28;20044;-73
2022/06/21 10:50:12;;;;;;;4.18;1.30;;;;;;;;;;5071585;28;20385;-73
2022/06/21 10:52:56;;;;;;;4.55;1.30;;;;;;;;;;5036471;28;20048;-74
2022/06/21 10:55:38;;;;;;;2.70;1.13;;;;;;;;;;5071546;28;20384;-73
2022/06/21 10:58:22;;;;;;;2.88;1.00;;;;;;;;;;5071649;28;20051;-73
2022/06/21 11:01:19;;;;;;;3.78;1.00;;;;;;;;;;5071721;28;20040;-74
2022/06/21 11:03:45;;;;;;;3.53;1.00;;;;;;;;;;5071910;28;20500;-74
2022/06/21 11:06:18;;;;;;;3.58;1.00;;;;;;;;;;5070869;28;20043;-74
2022/06/21 11:08:47;;;;;;;3.53;1.00;;;;;;;;;;5071146;28;20052;-73
2022/06/21 11:11:16;;;;;;;3.80;0.95;;;;;;;;;;5070643;28;20048;-73
2022/06/21 11:13:53;;;;;;;4.10;1.02;;;;;;;;;;5071751;28;20043;-73
2022/06/21 11:16:38;;;;;;;3.97;1.05;;;;;;;;;;5054576;28;20067;-74
2022/06/21 11:19:04;;;;;;;3.80;1.00;;;;;;;;;;5070818;28;20047;-73
2022/06/21 11:21:36;;;;;;;4.65;1.02;;;;;;;;;;5053930;28;20127;-73
2022/06/21 11:24:14;;;;;;;3.40;1.30;;;;;;;;;;5105283;28;20124;-74
2022/06/21 11:26:46;;;;;;;2.45;1.10;;;;;;;;;;5060715;28;20130;-74
2022/06/21 11:29:31;;;;;;;3.55;1.30;;;;;;;;;;5067947;28;20044;-74
2022/06/21 11:32:15;;;;;;;4.55;1.00;;;;;;;;;;5071344;28;20509;-74
2022/06/21 11:34:47;;;;;;;3.40;1.15;;;;;;;;;;5044400;28;20041;-74
2022/06/21 11:37:31;;;;;;;3.75;1.10;;;;;;;;;;5054557;28;20051;-74
2022/06/21 11:40:22;;;;;;;4.25;1.25;;;;;;;;;;5047352;28;20374;-74
2022/06/21 11:42:57;;;;;;;5.00;1.20;;;;;;;;;;5065466;28;20051;-74
2022/06/21 11:45:31;;;;;;;4.43;0.93;;;;;;;;;;5070266;28;20048;-74
2022/06/21 11:48:15;;;;;;;3.97;1.00;;;;;;;;;;5070204;28;20045;-74
2022/06/21 11:51:09;;;;;;;4.05;0.98;;;;;;;;;;5070437;28;20048;-74
2022/06/21 11:53:47;;;;;;;4.55;1.00;;;;;;;;;;5046463;28;20090;-74
2022/06/21 11:56:25;;;;;;;2.47;1.00;;;;;;;;;;5070517;28;20040;-74
2022/06/21 11:58:54;;;;;;;3.28;1.15;;;;;;;;;;5070468;28;20456;-74
2022/06/21 12:01:27;;;;;;;3.17;1.02;;;;;;;;;;5069677;28;20045;-74
2022/06/21 12:04:03;;;;;;;3.53;1.00;;;;;;;;;;5070745;28;20541;-74
2022/06/21 12:06:35;;;;;;;2.97;1.20;;;;;;;;;;5069953;28;20080;-74
2022/06/21 12:09:11;;;;;;;3.47;1.00;;;;;;;;;;5069992;28;20076;-74
2022/06/21 12:11:48;;;;;;;2.28;0.80;;;;;;;;;;5069700;28;20053;-74
2022/06/21 12:14:36;;;;;;;3.35;1.08;;;;;;;;;;5053792;28;20041;-74
2022/06/21 12:17:06;;;;;;;3.88;1.10;;;;;;;;;;5070304;28;20515;-74
2022/06/21 12:19:36;;;;;;;3.65;0.90;;;;;;;;;;5052441;28;20382;-75
2022/06/21 12:22:10;;;;;;;2.97;1.05;;;;;;;;;;5070324;28;20435;-75
2022/06/21 12:24:38;;;;;;;3.03;0.90;;;;;;;;;;5074277;28;20040;-74
2022/06/21 12:27:06;;;;;;;4.72;1.20;;;;;;;;;;5071807;28;20047;-74
2022/06/21 12:29:32;;;;;;;3.72;0.80;;;;;;;;;;5071188;28;20045;-74
2022/06/21 12:32:00;;;;;;;2.20;0.82;;;;;;;;;;5070816;28;20033;-74
2022/06/21 12:34:40;;;;;;;1.85;0.80;;;;;;;;;;5069800;28;20068;-74
2022/06/21 12:37:09;;;;;;;2.35;0.95;;;;;;;;;;5070166;28;20051;-74
2022/06/21 12:39:38;;;;;;;3.17;0.77;;;;;;;;;;5053144;28;20033;-73
2022/06/21 12:42:22;;;;;;;4.20;0.90;;;;;;;;;;5070128;28;20044;-74
2022/06/21 12:44:48;;;;;;;2.03;0.70;;;;;;;;;;5071333;28;20036;-74
2022/06/21 12:47:19;;;;;;;3.00;1.00;;;;;;;;;;5057669;28;20136;-74
2022/06/21 12:50:04;;;;;;;4.35;0.98;;;;;;;;;;5067606;28;20481;-75
2022/06/21 12:52:43;;;;;;;2.45;0.70;;;;;;;;;;5069405;28;20040;-74
2022/06/21 12:55:26;;;;;;;4.20;1.00;;;;;;;;;;5044274;28;20500;-74
2022/06/21 12:58:02;;;;;;;2.33;0.70;;;;;;;;;;5069394;28;20551;-73
2022/06/21 13:00:37;;;;;;;4.43;1.05;;;;;;;;;;5069334;28;20040;-74
2022/06/21 13:03:21;;;;;;;3.50;1.00;;;;;;;;;;5052821;28;20048;-73
2022/06/21 13:06:25;;;;;;;2.92;0.82;;;;;;;;;;5069187;28;20142;-74
2022/06/21 13:09:01;;;;;;;4.90;1.13;;;;;;;;;;5015708;28;20041;-74
2022/06/21 13:11:45;;;;;;;3.08;0.90;;;;;;;;;;5048055;28;20183;-74
2022/06/21 13:14:30;;;;;;;2.08;0.80;;;;;;;;;;5056648;28;20055;-74
2022/06/21 13:17:06;;;;;;;2.50;0.88;;;;;;;;;;5069717;28;20044;-74
2022/06/21 13:19:52;;;;;;;5.68;1.00;;;;;;;;;;5068616;28;20123;-74
2022/06/21 13:22:21;;;;;;;3.60;1.05;;;;;;;;;;5069457;28;20123;-74
2022/06/21 13:24:53;;;;;;;2.40;0.80;;;;;;;;;;5069069;28;20048;-74
2022/06/21 13:27:19;;;;;;;3.50;1.00;;;;;;;;;;5069398;28;20052;-74
2022/06/21 13:30:06;;;;;;;3.28;0.90;;;;;;;;;;5068516;28;20036;-74
2022/06/21 13:32:33;;;;;;;3.03;0.90;;;;;;;;;;5053609;28;20044;-74
2022/06/21 13:35:02;;;;;;;2.50;0.85;;;;;;;;;;5073398;28;20101;-74
2022/06/21 13:37:31;;;;;;;3.50;0.93;;;;;;;;;;5072831;28;20523;-74
2022/06/21 13:40:02;;;;;;;5.47;0.90;;;;;;;;;;5056015;28;20048;-74
2022/06/21 13:42:49;;;;;;;4.93;1.20;;;;;;;;;;5072738;28;20261;-74
2022/06/21 13:45:15;;;;;;;2.95;1.00;;;;;;;;;;5073145;28;20404;-74
2022/06/21 13:47:56;;;;;;;3.22;0.95;;;;;;;;;;5072455;28;20529;-74
2022/06/21 13:50:25;;;;;;;3.53;0.80;;;;;;;;;;5073180;28;20386;-74
2022/06/21 13:53:17;;;;;;;3.78;0.80;;;;;;;;;;5072560;28;20064;-74
2022/06/21 13:55:43;;;;;;;4.32;1.10;;;;;;;;;;5072345;28;20045;-74
2022/06/21 13:58:13;;;;;;;2.85;0.90;;;;;;;;;;5072562;28;20040;-74
2022/06/21 14:00:51;;;;;;;2.85;0.80;;;;;;;;;;5072401;28;20051;-74
2022/06/21 14:03:30;;;;;;;3.65;1.10;;;;;;;;;;5072780;28;20044;-73
2022/06/21 14:06:05;;;;;;;3.13;0.70;;;;;;;;;;5072402;28;20044;-74
2022/06/21 14:08:35;;;;;;;4.38;1.02;;;;;;;;;;5072046;28;20040;-74
2022/06/21 14:11:11;;;;;;;4.05;1.13;;;;;;;;;;5072636;28;20132;-74
2022/06/21 14:13:49;;;;;;;3.00;1.10;;;;;;;;;;5071917;28;20044;-74
2022/06/21 14:16:16;;;;;;;3.75;1.20;;;;;;;;;;5072236;28;20036;-74
2022/06/21 14:18:45;;;;;;;2.25;0.77;;;;;;;;;;5072109;28;20566;-74
2022/06/21 14:21:24;;;;;;;2.80;1.05;;;;;;;;;;5072598;28;20056;-75
2022/06/21 14:23:53;;;;;;;3.67;0.90;;;;;;;;;;5055278;28;20074;-74
2022/06/21 14:26:25;;;;;;;3.00;1.17;;;;;;;;;;5072062;28;20433;-74
2022/06/21 14:28:54;;;;;;;4.70;1.20;;;;;;;;;;5071422;28;20043;-74
2022/06/21 14:31:28;;;;;;;3.70;1.20;;;;;;;;;;5072150;28;20114;-74
2022/06/21 14:33:58;;;;;;;4.03;1.10;;;;;;;;;;5054989;28;20123;-74
2022/06/21 14:36:32;;;;;;;2.42;0.93;;;;;;;;;;5073466;28;20085;-74
2022/06/21 14:39:05;;;;;;;3.42;1.25;;;;;;;;;;5073032;28;20045;-74
2022/06/21 14:41:44;;;;;;;2.42;1.10;;;;;;;;;;5045813;28;20052;-75
2022/06/21 14:44:18;;;;;;;3.92;1.20;;;;;;;;;;5071270;28;20040;-74
2022/06/21 14:47:02;;;;;;;6.20;1.50;;;;;;;;;;5071836;28;20400;-74
2022/06/21 14:49:34;;;;;;;3.03;1.17;;;;;;;;;;5071756;28;20133;-74
2022/06/21 14:52:00;;;;;;;4.40;1.05;;;;;;;;;;5072717;28;20283;-74
2022/06/21 14:54:44;;;;;;;2.78;1.20;;;;;;;;;;5071880;28;20044;-74
2022/06/21 14:57:29;;;;;;;4.45;1.20;;;;;;;;;;5073246;28;20036;-74
2022/06/21 15:00:03;;;;;;;3.10;1.10;;;;;;;;;;5071080;28;20044;-74
2022/06/21 15:02:42;;;;;;;4.83;1.00;;;;;;;;;;5071407;28;20485;-74
2022/06/21 15:05:26;;;;;;;4.65;1.20;;;;;;;;;;5071562;28;20037;-74
2022/06/21 15:07:56;;;;;;;3.95;1.10;;;;;;;;;;5071379;28;20463;-74
2022/06/21 15:10:31;;;;;;;3.80;1.10;;;;;;;;;;5027791;28;20433;-74
2022/06/21 15:13:17;;;;;;;3.47;1.30;;;;;;;;;;5071098;28;20677;-74
2022/06/21 15:15:46;;;;;;;1.92;1.05;;;;;;;;;;5070739;28;20079;-74
2022/06/21 15:18:19;;;;;;;4.00;1.35;;;;;;;;;;5072461;28;20098;-74
2022/06/21 15:20:49;;;;;;;3.78;1.00;;;;;;;;;;5070471;28;20040;-74
2022/06/21 15:23:34;;;;;;;3.45;1.20;;;;;;;;;;5072828;28;20093;-74
2022/06/21 15:26:00;;;;;;;2.47;1.10;;;;;;;;;;5104326;28;20048;-74
2022/06/21 15:28:32;;;;;;;2.67;1.10;;;;;;;;;;5071346;28;20501;-74
2022/06/21 15:31:18;;;;;;;3.30;1.10;;;;;;;;;;5053806;28;20595;-74
2022/06/21 15:34:11;;;;;;;5.10;1.38;;;;;;;;;;5057658;28;20037;-74